Accueil
METAR-TAF:

METAR-TAF

Aéroports :

Aéroport international de Zinder

Zinder, Niger

latitude: 13-47N, longitude: 008-59E, altitude: 452 m

Observation

Le bulletin a été fait il y a 1 heure et 12 minutes, à 05:00 UTC
Vent 10 kt de est, variant entre nord/nord-est et est
Température 17°C
Humidité 17%
Pression 1019 hPa
Visibilité: 1200 m
poussière généralisée

METAR: DRZR 260500Z 08010KT 030V100 1200 DU NSC 17/M08 Q1019

Heure: 07:12 (06:12 UTC)

Prévision

Le bulletin a été fait il y a 1 heure et 12 minutes, à 05:00 UTC
Prévision valable du 26 à 06 UTC au 27 à 06 UTC
Vent 8 kt de est
Visibilité: 1200 m
poussière généralisée
Probabilité 40%
du 26 à 06 UTC au 26 à 12 UTC
Vent 18 kt de est
Visibilité: 0600 m
Chasse-poussière élevée
Evoluant progressivement
du 26 à 16 UTC au 26 à 18 UTC
Visibilité: 2500 m

TAF: DRZR 260500Z 2606/2706 08008KT 1200 DU NSC PROB40 2606/2612 08018KT 0600 BLDU BECMG 2616/2618 2500

Observations et prévisions météorologiques de plus de 4000 aéroports (messages METAR et TAF).

Les stations disponibles sont représentées par des disques jaunes et rouges sur la carte.

Passer la souris dessus pour voir le nom de la station.

Cliquer dessus pour voir les observations et prévisions météorologiques.

Pour changer de carte: cliquez sur les boutons verts avec une croix noire pour zoomer, sur le bouton vert avec un tiret pour effectuer un zoom arrière, ou sur les flèches vertes pour les cartes adjacentes.


METAR-TAF: